Time;durP1;ratioP1;P1;durP2;ratioP2;P2;SDS_P1;SDS_P2;PMS_P1;PMS_P2;Temp;Humidity;BMP_temperature;BMP_pressure;BME280_temperature;BME280_humidity;BME280_pressure;Samples;Min_cycle;Max_cycle;Signal;HPM_P1;HPM_P2
2021/05/15 00:01:21;;;;;;;2.80;0.90;;;14.10;62.50;;;;;;4931658;29;20036;-68
2021/05/15 00:03:46;;;;;;;1.85;1.00;;;14.10;62.90;;;;;;4948276;29;20055;-68
2021/05/15 00:06:12;;;;;;;3.28;0.82;;;14.00;62.70;;;;;;4949945;29;20039;-68
2021/05/15 00:08:37;;;;;;;2.95;0.95;;;14.00;63.10;;;;;;4931631;29;20087;-69
2021/05/15 00:11:03;;;;;;;3.17;0.70;;;14.00;62.70;;;;;;4948439;29;20043;-68
2021/05/15 00:13:28;;;;;;;1.67;0.80;;;14.00;63.00;;;;;;4948411;29;20044;-68
2021/05/15 00:15:54;;;;;;;1.42;0.90;;;14.10;63.30;;;;;;4948526;29;20236;-69
2021/05/15 00:18:19;;;;;;;2.33;0.90;;;14.00;63.30;;;;;;4948482;29;20024;-68
2021/05/15 00:20:45;;;;;;;1.42;0.80;;;14.00;63.20;;;;;;4949694;29;20099;-69
2021/05/15 00:23:11;;;;;;;2.08;0.90;;;14.00;63.10;;;;;;4948443;29;20043;-68
2021/05/15 00:25:36;;;;;;;4.22;1.00;;;14.10;63.10;;;;;;4931300;29;20038;-69
2021/05/15 00:28:02;;;;;;;2.17;0.98;;;14.00;63.40;;;;;;4948140;29;20387;-69
2021/05/15 00:30:27;;;;;;;2.75;1.20;;;13.90;64.30;;;;;;4948099;29;20036;-68
2021/05/15 00:32:53;;;;;;;1.65;0.80;;;13.90;64.70;;;;;;4949461;29;20047;-69
2021/05/15 00:35:18;;;;;;;2.03;1.00;;;14.00;65.40;;;;;;4948008;29;20039;-68
2021/05/15 00:37:44;;;;;;;3.38;1.00;;;13.90;65.50;;;;;;4947467;29;20040;-68
2021/05/15 00:40:10;;;;;;;2.10;0.90;;;13.90;65.60;;;;;;4947848;29;20099;-68
2021/05/15 00:42:36;;;;;;;2.80;0.90;;;13.90;65.90;;;;;;4947972;29;20324;-69
2021/05/15 00:45:02;;;;;;;3.35;0.80;;;13.90;66.00;;;;;;4949323;29;20031;-68
2021/05/15 00:47:28;;;;;;;3.22;1.10;;;13.80;66.50;;;;;;4948102;29;20370;-68
2021/05/15 00:49:53;;;;;;;4.00;1.00;;;13.90;66.60;;;;;;4947574;29;20031;-69
2021/05/15 00:52:20;;;;;;;3.60;0.90;;;13.80;66.50;;;;;;4948017;29;20039;-68
2021/05/15 00:54:45;;;;;;;1.30;0.80;;;13.90;66.80;;;;;;4947408;29;20051;-68
2021/05/15 00:57:11;;;;;;;2.03;1.00;;;13.90;66.80;;;;;;4932723;29;20091;-68
2021/05/15 00:59:37;;;;;;;3.70;1.15;;;13.90;66.90;;;;;;4947411;29;20263;-68
2021/05/15 01:02:03;;;;;;;1.60;0.90;;;13.80;67.30;;;;;;4947326;29;20339;-68
2021/05/15 01:04:28;;;;;;;3.90;1.00;;;13.80;67.10;;;;;;4947513;29;20106;-68
2021/05/15 01:06:54;;;;;;;1.90;0.98;;;13.80;67.10;;;;;;4947216;29;20032;-70
2021/05/15 01:09:19;;;;;;;3.42;0.90;;;13.80;67.00;;;;;;4947379;29;20028;-68
2021/05/15 01:11:45;;;;;;;3.20;1.00;;;13.80;67.10;;;;;;4949026;29;20032;-68
2021/05/15 01:14:11;;;;;;;1.88;0.82;;;13.80;67.20;;;;;;4947771;29;20040;-68
2021/05/15 01:16:36;;;;;;;2.88;1.13;;;13.80;67.30;;;;;;4946920;29;20117;-69
2021/05/15 01:19:03;;;;;;;2.97;0.98;;;13.80;67.50;;;;;;4947010;29;20043;-68
2021/05/15 01:21:28;;;;;;;1.73;0.90;;;13.80;67.80;;;;;;4930576;29;20039;-68
2021/05/15 01:23:54;;;;;;;5.88;1.00;;;13.80;67.90;;;;;;4948857;29;20024;-68
2021/05/15 01:26:27;;;;;;;3.05;1.10;;;13.80;68.00;;;;;;4947177;29;20040;-68
2021/05/15 01:28:55;;;;;;;1.45;0.90;;;13.80;68.20;;;;;;4946879;29;20083;-69
2021/05/15 01:31:21;;;;;;;2.58;0.88;;;13.80;68.20;;;;;;4946841;29;20055;-68
2021/05/15 01:33:46;;;;;;;2.60;0.90;;;13.80;68.20;;;;;;4946911;29;20042;-68
2021/05/15 01:36:12;;;;;;;4.28;1.65;;;13.80;68.10;;;;;;4948505;29;20198;-68
2021/05/15 01:38:37;;;;;;;3.30;0.93;;;13.70;68.20;;;;;;4947117;29;20043;-68
2021/05/15 01:41:10;;;;;;;3.05;0.82;;;13.70;68.30;;;;;;4947021;29;20039;-69
2021/05/15 01:43:36;;;;;;;2.47;1.27;;;13.70;68.30;;;;;;4946709;29;20028;-70
2021/05/15 01:46:02;;;;;;;3.20;1.00;;;13.70;68.30;;;;;;4929999;29;20319;-68
2021/05/15 01:48:27;;;;;;;2.40;0.90;;;13.70;68.30;;;;;;4945916;28;20132;-68
2021/05/15 01:50:57;;;;;;;1.50;0.80;;;13.70;68.40;;;;;;4947863;29;20036;-69
2021/05/15 01:53:24;;;;;;;2.47;1.00;;;13.70;68.50;;;;;;4947122;29;20211;-68
2021/05/15 01:55:50;;;;;;;3.20;0.90;;;13.70;68.20;;;;;;4946255;29;20035;-68
2021/05/15 01:58:16;;;;;;;1.10;0.80;;;13.60;68.00;;;;;;4946468;29;20051;-68
2021/05/15 02:00:41;;;;;;;1.75;0.90;;;13.70;68.10;;;;;;4946328;29;20036;-68
2021/05/15 02:03:07;;;;;;;4.03;0.80;;;13.70;68.10;;;;;;4948362;29;20257;-69
2021/05/15 02:05:32;;;;;;;3.17;0.88;;;13.60;68.10;;;;;;4946684;29;20078;-69
2021/05/15 02:07:57;;;;;;;1.65;0.60;;;13.60;68.30;;;;;;4946085;29;20051;-68
2021/05/15 02:10:23;;;;;;;1.83;0.80;;;13.60;68.20;;;;;;4946139;29;20255;-68
2021/05/15 02:12:49;;;;;;;2.58;0.80;;;13.50;67.90;;;;;;4945973;29;20039;-68
2021/05/15 02:15:14;;;;;;;1.50;0.63;;;13.50;68.00;;;;;;4947499;29;20036;-70
2021/05/15 02:17:40;;;;;;;1.60;0.60;;;13.50;67.80;;;;;;4946573;29;20047;-70
2021/05/15 02:20:06;;;;;;;1.30;0.70;;;13.40;68.30;;;;;;4946001;29;20046;-69
2021/05/15 02:22:31;;;;;;;2.28;0.70;;;13.40;68.50;;;;;;4946137;29;20046;-68
2021/05/15 02:24:57;;;;;;;2.10;0.90;;;13.40;68.70;;;;;;4945924;29;20331;-68
2021/05/15 02:27:22;;;;;;;1.83;0.80;;;13.40;68.70;;;;;;4946047;29;20038;-68
2021/05/15 02:29:48;;;;;;;2.75;1.00;;;13.40;68.90;;;;;;4948018;29;20028;-68
2021/05/15 02:32:13;;;;;;;1.45;0.70;;;13.40;69.00;;;;;;4946330;29;20039;-69
2021/05/15 02:34:39;;;;;;;2.08;0.73;;;13.40;69.30;;;;;;4946104;29;20223;-69
2021/05/15 02:37:04;;;;;;;4.20;0.80;;;13.30;69.40;;;;;;4945904;29;20058;-68
2021/05/15 02:39:30;;;;;;;2.72;0.90;;;13.30;69.40;;;;;;4945718;29;20036;-68
2021/05/15 02:41:56;;;;;;;1.98;0.88;;;13.30;69.50;;;;;;4947467;29;20038;-68
2021/05/15 02:44:21;;;;;;;1.50;0.70;;;13.30;69.20;;;;;;4945928;29;20061;-69
2021/05/15 02:46:46;;;;;;;1.73;0.70;;;13.30;69.40;;;;;;4945683;29;20043;-68
2021/05/15 02:49:12;;;;;;;2.13;0.88;;;13.30;69.60;;;;;;4945407;29;20051;-70
2021/05/15 02:51:37;;;;;;;1.42;0.70;;;13.30;69.50;;;;;;4945881;29;20040;-68
2021/05/15 02:54:03;;;;;;;1.13;0.70;;;13.30;69.40;;;;;;4947536;29;20039;-69
2021/05/15 02:56:29;;;;;;;3.45;0.70;;;13.30;69.50;;;;;;4945098;29;20095;-68
2021/05/15 02:58:54;;;;;;;1.95;0.70;;;13.20;69.50;;;;;;4945380;29;20035;-68
2021/05/15 03:01:20;;;;;;;1.77;0.80;;;13.20;69.50;;;;;;4945213;29;20103;-68
2021/05/15 03:03:46;;;;;;;1.60;0.70;;;13.20;69.60;;;;;;4945222;29;20074;-69
2021/05/15 03:06:12;;;;;;;1.63;0.70;;;13.20;69.70;;;;;;4946924;29;20035;-68
2021/05/15 03:08:37;;;;;;;1.33;0.65;;;13.20;69.60;;;;;;4945752;29;20360;-68
2021/05/15 03:11:03;;;;;;;1.98;0.80;;;13.20;69.50;;;;;;4945597;29;20047;-68
2021/05/15 03:13:28;;;;;;;2.85;0.80;;;13.10;69.50;;;;;;4945368;29;20070;-69
2021/05/15 03:15:54;;;;;;;2.55;0.70;;;13.20;69.70;;;;;;4945318;29;20046;-68
2021/05/15 03:18:19;;;;;;;2.17;0.90;;;13.10;69.50;;;;;;4945403;29;20063;-68
2021/05/15 03:20:45;;;;;;;1.52;0.70;;;13.10;69.60;;;;;;4946711;29;20053;-68
2021/05/15 03:23:12;;;;;;;0.70;0.60;;;13.10;69.70;;;;;;4945558;29;20043;-68
2021/05/15 03:25:37;;;;;;;1.83;0.80;;;13.10;69.80;;;;;;4944984;29;20039;-68
2021/05/15 03:28:03;;;;;;;0.90;0.60;;;13.10;69.70;;;;;;4944996;29;20069;-68
2021/05/15 03:30:29;;;;;;;0.80;0.50;;;13.10;69.60;;;;;;4945328;29;20028;-68
2021/05/15 03:32:54;;;;;;;1.27;0.60;;;13.10;69.70;;;;;;4946664;29;20028;-68
2021/05/15 03:35:20;;;;;;;0.98;0.70;;;13.10;69.90;;;;;;4945118;29;20067;-69
2021/05/15 03:37:45;;;;;;;0.70;0.57;;;13.10;69.80;;;;;;4945165;29;20040;-69
2021/05/15 03:40:11;;;;;;;1.65;0.73;;;13.00;69.90;;;;;;4944947;29;20040;-68
2021/05/15 03:42:38;;;;;;;2.90;0.65;;;13.10;70.00;;;;;;4944823;29;20035;-68
2021/05/15 03:45:04;;;;;;;0.73;0.57;;;13.00;70.00;;;;;;4946773;29;20036;-69
2021/05/15 03:47:30;;;;;;;1.35;0.60;;;13.00;69.90;;;;;;4945347;29;20040;-68
2021/05/15 03:49:55;;;;;;;1.42;0.70;;;13.00;70.00;;;;;;4927974;29;20046;-69
2021/05/15 03:52:21;;;;;;;1.25;0.68;;;13.00;70.10;;;;;;4927988;29;20034;-69
2021/05/15 03:54:46;;;;;;;1.88;0.80;;;13.10;70.30;;;;;;4944654;29;20091;-68
2021/05/15 03:57:12;;;;;;;2.85;0.90;;;13.10;70.40;;;;;;4946546;29;20027;-69
2021/05/15 03:59:38;;;;;;;0.98;0.75;;;13.00;70.40;;;;;;4944968;29;20036;-69
2021/05/15 04:02:03;;;;;;;2.38;0.70;;;13.10;70.50;;;;;;4944915;29;20047;-69
2021/05/15 04:04:29;;;;;;;1.00;0.60;;;13.10;70.30;;;;;;4944771;29;20064;-69
2021/05/15 04:06:54;;;;;;;1.50;0.50;;;13.10;70.40;;;;;;4944821;29;20061;-68
2021/05/15 04:09:20;;;;;;;0.50;0.50;;;13.10;70.10;;;;;;4944575;29;20091;-68
2021/05/15 04:11:45;;;;;;;1.20;0.60;;;13.10;70.20;;;;;;4946225;29;20031;-69
2021/05/15 04:16:48;;;;;;;2.97;0.50;;;13.00;70.10;;;;;;4948568;29;20054;-69
2021/05/15 04:19:13;;;;;;;1.75;0.60;;;13.10;70.10;;;;;;4948324;29;20035;-69
2021/05/15 04:21:39;;;;;;;0.95;0.60;;;13.10;70.20;;;;;;4948308;29;20066;-68
2021/05/15 04:24:05;;;;;;;1.08;0.65;;;13.00;70.00;;;;;;4949954;29;20040;-69
2021/05/15 04:26:30;;;;;;;0.90;0.60;;;13.00;70.10;;;;;;4948534;29;20107;-69
2021/05/15 04:28:56;;;;;;;0.65;0.60;;;13.10;70.10;;;;;;4931369;29;20036;-69
2021/05/15 04:31:21;;;;;;;1.50;0.70;;;13.00;70.30;;;;;;4948430;29;20094;-69
2021/05/15 04:33:47;;;;;;;1.48;0.95;;;13.00;70.40;;;;;;4947960;29;20047;-69
2021/05/15 04:36:12;;;;;;;1.25;0.63;;;13.10;70.50;;;;;;4949927;29;20031;-69
2021/05/15 04:38:38;;;;;;;1.95;0.50;;;13.00;70.20;;;;;;4947719;29;20036;-69
2021/05/15 04:41:03;;;;;;;2.55;0.60;;;13.00;70.00;;;;;;4948319;29;20319;-69
2021/05/15 04:43:29;;;;;;;0.50;0.50;;;13.00;70.00;;;;;;4948037;29;20035;-68
2021/05/15 04:45:56;;;;;;;1.20;0.50;;;13.00;70.10;;;;;;4947793;29;20064;-69
2021/05/15 04:48:21;;;;;;;1.58;0.60;;;13.00;70.30;;;;;;4947967;29;20032;-68
2021/05/15 04:50:46;;;;;;;1.58;0.70;;;13.00;70.20;;;;;;4949357;29;20032;-69
2021/05/15 04:53:12;;;;;;;1.05;0.60;;;13.00;70.10;;;;;;4947519;29;20074;-69
2021/05/15 04:55:37;;;;;;;1.48;0.80;;;12.90;70.30;;;;;;4947502;29;20082;-69
2021/05/15 04:58:03;;;;;;;1.42;0.77;;;13.00;70.30;;;;;;4947514;29;20038;-68
2021/05/15 05:00:28;;;;;;;0.85;0.50;;;13.00;70.30;;;;;;4947557;29;20032;-69
2021/05/15 05:02:54;;;;;;;1.90;0.55;;;13.10;70.40;;;;;;4948938;29;20398;-69
2021/05/15 05:05:20;;;;;;;2.33;0.60;;;13.00;70.40;;;;;;4947730;29;20040;-69
2021/05/15 05:07:45;;;;;;;1.17;0.52;;;13.10;70.30;;;;;;4947630;29;20048;-68
2021/05/15 05:10:11;;;;;;;1.65;0.50;;;13.10;70.30;;;;;;4947425;29;20313;-68
2021/05/15 05:12:37;;;;;;;1.25;0.55;;;13.10;70.30;;;;;;4947050;29;20098;-68
2021/05/15 05:15:03;;;;;;;1.88;0.60;;;13.10;70.30;;;;;;4949004;29;20378;-67
2021/05/15 05:17:29;;;;;;;2.08;0.73;;;13.10;70.40;;;;;;4947258;29;20040;-68
2021/05/15 05:19:54;;;;;;;1.50;0.60;;;13.10;70.70;;;;;;4947071;29;20098;-68
2021/05/15 05:22:20;;;;;;;1.90;0.60;;;13.20;70.70;;;;;;4947034;29;20032;-68
2021/05/15 05:24:46;;;;;;;1.02;0.70;;;13.10;70.50;;;;;;4946560;29;20046;-67
2021/05/15 05:27:12;;;;;;;1.27;0.60;;;13.10;70.50;;;;;;4948491;29;20044;-67
2021/05/15 05:29:38;;;;;;;1.02;0.57;;;13.20;70.50;;;;;;4946805;29;20047;-67
2021/05/15 05:32:04;;;;;;;2.05;0.70;;;13.20;70.10;;;;;;4947298;29;20051;-65
2021/05/15 05:34:31;;;;;;;1.45;0.60;;;13.20;70.40;;;;;;4929889;29;20047;-65
2021/05/15 05:36:57;;;;;;;1.00;0.60;;;13.10;70.60;;;;;;4946535;29;20074;-65
2021/05/15 05:39:22;;;;;;;0.85;0.60;;;13.10;70.30;;;;;;4946520;29;20040;-64
2021/05/15 05:41:48;;;;;;;1.17;0.70;;;13.20;70.30;;;;;;4948584;29;20032;-70
2021/05/15 05:44:14;;;;;;;1.42;0.70;;;13.10;70.20;;;;;;4947039;29;20118;-67
2021/05/15 05:46:40;;;;;;;2.20;0.70;;;13.10;70.50;;;;;;4946414;29;20263;-67
2021/05/15 05:49:05;;;;;;;0.98;0.60;;;13.20;70.60;;;;;;4946767;29;20048;-64
2021/05/15 05:51:31;;;;;;;1.60;0.60;;;13.30;70.40;;;;;;4946294;29;20051;-68
2021/05/15 05:53:57;;;;;;;2.10;0.70;;;13.30;70.50;;;;;;4948008;29;20075;-67
2021/05/15 05:56:22;;;;;;;1.73;0.80;;;13.30;70.20;;;;;;4946244;29;20047;-68
2021/05/15 05:58:48;;;;;;;1.23;0.80;;;13.30;70.20;;;;;;4946369;29;20231;-68
2021/05/15 06:01:14;;;;;;;1.00;0.80;;;13.30;70.30;;;;;;4946418;29;20233;-66
2021/05/15 06:03:40;;;;;;;3.55;0.80;;;13.30;70.50;;;;;;4946120;29;20342;-68
2021/05/15 06:06:05;;;;;;;1.52;0.77;;;13.40;70.70;;;;;;4948070;29;20083;-67
2021/05/15 06:08:31;;;;;;;0.90;0.65;;;13.40;70.60;;;;;;4946537;29;20035;-64
2021/05/15 06:10:57;;;;;;;1.02;0.70;;;13.40;70.70;;;;;;4946036;29;20087;-64
2021/05/15 06:13:22;;;;;;;1.23;0.70;;;13.40;70.60;;;;;;4946228;29;20035;-65
2021/05/15 06:15:48;;;;;;;1.85;0.88;;;13.40;70.20;;;;;;4945955;29;20220;-65
2021/05/15 06:18:13;;;;;;;1.95;0.80;;;13.50;70.50;;;;;;4947748;29;20326;-66
2021/05/15 06:20:39;;;;;;;2.17;0.80;;;13.50;70.50;;;;;;4945771;29;20050;-65
2021/05/15 06:23:04;;;;;;;1.55;0.70;;;13.50;70.60;;;;;;4946163;29;20058;-65
2021/05/15 06:25:30;;;;;;;1.10;0.70;;;13.60;70.50;;;;;;4945744;29;20040;-66
2021/05/15 06:27:55;;;;;;;2.15;0.85;;;13.60;70.70;;;;;;4945572;29;20271;-65
2021/05/15 06:30:21;;;;;;;3.63;0.98;;;13.70;70.10;;;;;;4945566;29;20347;-69
2021/05/15 06:32:47;;;;;;;2.38;0.85;;;13.70;70.00;;;;;;4947106;29;20350;-65
2021/05/15 06:35:12;;;;;;;0.85;0.60;;;13.80;70.20;;;;;;4945422;29;20067;-67
2021/05/15 06:37:38;;;;;;;1.20;0.73;;;13.70;69.70;;;;;;4945554;29;20047;-67
2021/05/15 06:40:05;;;;;;;1.98;0.82;;;13.80;70.10;;;;;;4945791;29;20058;-70
2021/05/15 06:42:30;;;;;;;1.35;1.05;;;13.80;69.90;;;;;;4945720;29;20290;-69
2021/05/15 06:44:56;;;;;;;2.88;0.90;;;13.80;69.90;;;;;;4947067;29;20027;-65
2021/05/15 06:47:21;;;;;;;2.38;0.88;;;13.90;70.20;;;;;;4945644;29;20050;-66
2021/05/15 06:49:49;;;;;;;2.67;0.70;;;13.90;69.90;;;;;;4945566;29;20051;-66
2021/05/15 06:52:14;;;;;;;1.33;0.80;;;13.90;69.70;;;;;;4945758;29;20035;-67
2021/05/15 06:54:40;;;;;;;2.22;0.90;;;14.00;68.90;;;;;;4945486;29;20071;-68
2021/05/15 06:57:06;;;;;;;1.10;0.70;;;14.10;68.20;;;;;;4947089;29;20066;-68
2021/05/15 06:59:33;;;;;;;0.75;0.60;;;14.10;68.20;;;;;;4945610;29;20043;-67
2021/05/15 07:01:58;;;;;;;1.27;0.60;;;14.20;68.00;;;;;;4928280;29;20234;-67
2021/05/15 07:04:25;;;;;;;1.92;0.80;;;14.30;67.70;;;;;;4945434;29;20039;-68
2021/05/15 07:06:50;;;;;;;1.55;0.60;;;14.30;67.70;;;;;;4945245;29;20039;-68
2021/05/15 07:09:16;;;;;;;2.05;0.70;;;14.40;68.00;;;;;;4945676;29;20035;-66
2021/05/15 07:11:41;;;;;;;1.13;0.60;;;14.40;67.00;;;;;;4946720;29;20083;-68
2021/05/15 07:14:07;;;;;;;1.48;0.63;;;14.40;67.20;;;;;;4945309;29;20047;-67
2021/05/15 07:16:32;;;;;;;3.65;0.60;;;14.30;66.30;;;;;;4944836;29;20055;-66
2021/05/15 07:18:58;;;;;;;2.25;0.80;;;14.40;66.50;;;;;;4927976;29;20064;-67
2021/05/15 07:21:23;;;;;;;3.72;0.90;;;14.40;66.20;;;;;;4945358;29;20031;-69
2021/05/15 07:23:49;;;;;;;1.40;0.57;;;14.40;66.00;;;;;;4946907;29;20104;-67
2021/05/15 07:26:14;;;;;;;2.40;0.70;;;14.60;65.70;;;;;;4944436;29;20050;-67
2021/05/15 07:28:40;;;;;;;3.03;0.63;;;14.60;65.70;;;;;;4944942;29;20039;-72
2021/05/15 07:31:05;;;;;;;3.83;0.70;;;14.70;65.30;;;;;;4945085;29;20378;-71
2021/05/15 07:33:31;;;;;;;3.85;0.80;;;14.80;65.30;;;;;;4927884;29;20048;-72
2021/05/15 07:35:57;;;;;;;1.27;0.70;;;14.90;65.10;;;;;;4946772;29;20101;-69
2021/05/15 07:38:23;;;;;;;1.70;0.70;;;15.10;65.10;;;;;;4945335;29;20197;-69
2021/05/15 07:40:49;;;;;;;1.77;0.65;;;15.10;64.10;;;;;;4945152;29;20038;-67
2021/05/15 07:43:16;;;;;;;1.90;0.77;;;15.20;63.50;;;;;;4945063;29;20341;-72
2021/05/15 07:45:42;;;;;;;2.95;0.80;;;15.20;63.30;;;;;;4944884;29;20075;-69
2021/05/15 07:48:07;;;;;;;2.40;0.77;;;15.30;63.50;;;;;;4949020;29;20035;-70
2021/05/15 07:50:33;;;;;;;2.30;0.70;;;15.30;62.70;;;;;;4932305;29;20319;-67
2021/05/15 07:52:58;;;;;;;2.47;0.70;;;15.30;61.90;;;;;;4948660;29;20102;-70
2021/05/15 07:55:24;;;;;;;2.08;0.77;;;15.40;62.30;;;;;;4948352;29;20107;-68
2021/05/15 07:57:49;;;;;;;3.22;0.75;;;15.40;61.40;;;;;;4948980;29;20059;-69
2021/05/15 08:00:15;;;;;;;1.48;0.80;;;15.40;61.20;;;;;;4950358;29;20204;-68
2021/05/15 08:02:41;;;;;;;3.00;0.70;;;15.40;60.30;;;;;;4948715;29;20120;-68
2021/05/15 08:05:09;;;;;;;1.85;0.88;;;15.50;59.50;;;;;;4948256;29;20387;-71
2021/05/15 08:07:35;;;;;;;1.52;0.57;;;15.50;59.40;;;;;;4948360;29;20031;-69
2021/05/15 08:10:00;;;;;;;2.20;1.13;;;15.60;59.10;;;;;;4948263;29;20039;-72
2021/05/15 08:12:26;;;;;;;1.98;0.90;;;15.70;59.50;;;;;;4948331;29;20028;-68
2021/05/15 08:14:51;;;;;;;3.00;0.80;;;15.70;58.30;;;;;;4949757;29;20027;-69
2021/05/15 08:17:17;;;;;;;3.35;0.70;;;15.80;59.20;;;;;;4948436;29;20059;-70
2021/05/15 08:19:42;;;;;;;0.68;0.50;;;15.90;59.00;;;;;;4947964;29;20343;-68
2021/05/15 08:22:08;;;;;;;1.90;0.60;;;15.90;58.10;;;;;;4947943;29;20087;-68
2021/05/15 08:24:33;;;;;;;1.13;0.52;;;15.90;57.90;;;;;;4948308;29;20036;-69
2021/05/15 08:26:59;;;;;;;1.40;0.82;;;16.10;57.00;;;;;;4949528;29;20035;-69
2021/05/15 08:29:25;;;;;;;5.38;0.73;;;16.10;56.40;;;;;;4931476;29;20032;-70
2021/05/15 08:31:50;;;;;;;0.80;0.50;;;16.20;56.40;;;;;;4931024;29;20040;-69
2021/05/15 08:34:16;;;;;;;2.20;0.63;;;16.30;55.40;;;;;;4947808;29;20043;-66
2021/05/15 08:36:41;;;;;;;1.00;0.55;;;16.30;55.60;;;;;;4947513;29;20071;-68
2021/05/15 08:39:07;;;;;;;0.75;0.50;;;16.30;54.00;;;;;;4949667;29;20031;-67
2021/05/15 08:41:33;;;;;;;1.10;0.55;;;16.30;52.20;;;;;;4948008;29;20056;-67
2021/05/15 08:44:03;;;;;;;0.90;0.60;;;16.30;51.80;;;;;;4947981;29;20043;-67
2021/05/15 08:46:29;;;;;;;0.60;0.47;;;16.40;53.70;;;;;;4947583;29;20208;-69
2021/05/15 08:48:55;;;;;;;1.85;0.60;;;16.50;53.20;;;;;;4947514;29;20331;-68
2021/05/15 08:51:20;;;;;;;1.48;0.40;;;16.50;53.20;;;;;;4947630;29;20079;-68
2021/05/15 08:53:46;;;;;;;2.15;0.50;;;16.60;53.80;;;;;;4932044;29;20023;-67
2021/05/15 08:56:11;;;;;;;1.35;0.60;;;16.60;53.60;;;;;;4930539;29;20361;-67
2021/05/15 08:58:37;;;;;;;1.00;0.50;;;16.80;53.40;;;;;;4946938;29;20040;-66
2021/05/15 09:01:03;;;;;;;3.70;0.50;;;16.80;52.20;;;;;;4947263;29;20244;-69
2021/05/15 09:03:29;;;;;;;0.60;0.47;;;16.80;50.90;;;;;;4947147;29;20048;-66
2021/05/15 09:05:55;;;;;;;0.73;0.57;;;17.00;51.60;;;;;;4949157;29;20032;-65
2021/05/15 09:08:20;;;;;;;1.45;0.50;;;17.00;51.30;;;;;;4947424;29;20047;-69
2021/05/15 09:10:47;;;;;;;1.20;0.50;;;17.10;49.40;;;;;;4947392;29;20046;-69
2021/05/15 09:13:19;;;;;;;0.77;0.40;;;17.10;50.50;;;;;;4947332;29;20046;-68
2021/05/15 09:15:53;;;;;;;2.72;0.40;;;17.00;50.10;;;;;;4946840;29;20059;-71
2021/05/15 09:18:23;;;;;;;1.20;0.50;;;16.90;48.50;;;;;;4947123;29;20031;-66
2021/05/15 09:20:50;;;;;;;1.40;0.32;;;17.00;49.90;;;;;;4948865;29;20024;-69
2021/05/15 09:23:24;;;;;;;1.95;0.70;;;17.00;48.40;;;;;;4947217;29;20062;-68
2021/05/15 09:26:17;;;;;;;0.90;0.50;;;17.10;50.20;;;;;;4947021;29;20039;-67
2021/05/15 09:28:49;;;;;;;1.75;0.60;;;17.30;49.40;;;;;;4946330;29;20036;-68
2021/05/15 09:31:20;;;;;;;1.40;0.60;;;17.30;49.60;;;;;;4947110;29;20100;-67
2021/05/15 09:33:53;;;;;;;1.03;0.60;;;17.30;50.20;;;;;;4946668;29;20205;-67
2021/05/15 09:36:21;;;;;;;1.83;0.68;;;17.30;51.00;;;;;;4931302;29;20039;-68
2021/05/15 09:39:01;;;;;;;1.10;0.52;;;17.30;49.40;;;;;;4948558;29;20028;-69
2021/05/15 09:41:41;;;;;;;1.20;0.60;;;17.30;50.50;;;;;;4946610;29;20052;-68
2021/05/15 09:44:08;;;;;;;2.50;0.50;;;17.30;49.20;;;;;;4930314;29;20043;-73
2021/05/15 09:46:35;;;;;;;1.50;0.50;;;17.30;50.00;;;;;;4946401;29;20044;-69
2021/05/15 09:49:00;;;;;;;1.73;0.50;;;17.30;49.50;;;;;;4946198;29;20043;-69
2021/05/15 09:51:26;;;;;;;2.33;0.70;;;17.30;50.10;;;;;;4946576;29;20039;-68
2021/05/15 09:53:51;;;;;;;1.98;0.70;;;17.20;47.10;;;;;;4948114;29;20315;-67
2021/05/15 09:56:30;;;;;;;1.92;0.50;;;17.10;48.90;;;;;;4929818;29;20349;-68
2021/05/15 09:58:56;;;;;;;1.27;0.60;;;17.20;48.00;;;;;;4946419;29;20066;-68
2021/05/15 10:01:25;;;;;;;4.25;0.63;;;17.00;48.40;;;;;;4946142;29;20035;-67
2021/05/15 10:03:58;;;;;;;0.80;0.50;;;17.00;47.90;;;;;;4945906;29;20060;-67
2021/05/15 10:06:24;;;;;;;1.27;0.60;;;17.10;49.90;;;;;;4946250;29;20099;-67
2021/05/15 10:08:49;;;;;;;2.25;0.50;;;17.10;50.20;;;;;;4947862;29;20060;-68
2021/05/15 10:11:15;;;;;;;1.40;0.50;;;17.00;50.60;;;;;;4945473;29;20067;-66
2021/05/15 10:13:42;;;;;;;2.65;0.60;;;17.00;50.10;;;;;;4929022;29;20035;-67
2021/05/15 10:16:08;;;;;;;0.98;0.50;;;17.00;50.50;;;;;;4945587;29;20044;-68
2021/05/15 10:18:34;;;;;;;3.17;0.95;;;17.00;48.00;;;;;;4946092;29;20027;-67
2021/05/15 10:21:00;;;;;;;1.05;0.50;;;16.90;47.80;;;;;;4947878;29;20039;-68
2021/05/15 10:23:35;;;;;;;0.70;0.50;;;16.90;48.90;;;;;;4945963;29;20104;-67
2021/05/15 10:26:16;;;;;;;0.65;0.43;;;17.00;48.60;;;;;;4945429;29;20227;-67
2021/05/15 10:28:42;;;;;;;0.50;0.30;;;17.00;46.50;;;;;;4945558;29;20120;-68
2021/05/15 10:31:15;;;;;;;1.25;0.40;;;16.90;46.60;;;;;;4945468;29;20032;-68
2021/05/15 10:33:42;;;;;;;2.47;0.65;;;17.00;47.50;;;;;;4945809;29;20042;-69
2021/05/15 10:36:19;;;;;;;1.17;0.47;;;17.00;47.00;;;;;;4947146;29;20031;-68
2021/05/15 10:38:45;;;;;;;5.43;0.80;;;17.20;44.90;;;;;;4946387;29;20042;-67
2021/05/15 10:41:17;;;;;;;2.67;0.77;;;17.20;45.80;;;;;;4945759;29;20102;-67
2021/05/15 10:43:43;;;;;;;4.18;0.60;;;17.20;44.20;;;;;;4945367;29;20044;-67
2021/05/15 10:46:19;;;;;;;2.85;0.80;;;17.10;44.30;;;;;;4928540;29;20039;-67
2021/05/15 10:48:58;;;;;;;2.60;0.63;;;17.10;45.90;;;;;;4945429;29;20038;-67
2021/05/15 10:51:45;;;;;;;2.25;0.60;;;17.30;46.50;;;;;;4945105;29;20031;-66
2021/05/15 10:54:11;;;;;;;1.42;0.60;;;17.40;46.70;;;;;;4947214;29;20207;-68
2021/05/15 10:56:37;;;;;;;1.65;0.60;;;17.50;47.20;;;;;;4944996;29;20091;-68
2021/05/15 10:59:04;;;;;;;3.40;0.50;;;17.50;47.70;;;;;;4945450;29;20046;-67
2021/05/15 11:01:50;;;;;;;0.65;0.40;;;17.40;46.20;;;;;;4945017;29;20063;-67
2021/05/15 11:04:40;;;;;;;2.25;0.60;;;17.30;43.80;;;;;;4945416;29;20048;-67
2021/05/15 11:07:10;;;;;;;1.90;0.50;;;17.20;43.60;;;;;;4931778;29;20043;-68
2021/05/15 11:09:37;;;;;;;1.60;0.50;;;17.30;46.00;;;;;;4945177;29;20027;-66
2021/05/15 11:12:14;;;;;;;1.80;0.60;;;17.40;46.80;;;;;;4946903;29;20292;-68
2021/05/15 11:14:59;;;;;;;1.10;0.60;;;17.50;47.10;;;;;;4945405;29;20047;-66
2021/05/15 11:17:28;;;;;;;0.90;0.50;;;17.50;47.60;;;;;;4945158;29;20069;-68
2021/05/15 11:19:59;;;;;;;0.82;0.50;;;17.60;46.70;;;;;;4928118;29;20079;-70
2021/05/15 11:22:49;;;;;;;1.23;0.50;;;17.60;44.80;;;;;;4944872;29;20323;-70
2021/05/15 11:25:15;;;;;;;1.33;0.55;;;17.60;45.00;;;;;;4945088;29;20100;-65
2021/05/15 11:28:03;;;;;;;1.48;0.50;;;17.60;45.30;;;;;;4944811;29;20067;-66
2021/05/15 11:30:42;;;;;;;1.08;0.50;;;17.80;44.30;;;;;;4944625;29;20080;-66
2021/05/15 11:33:10;;;;;;;2.45;0.55;;;17.80;44.00;;;;;;4946383;29;20031;-66
2021/05/15 11:35:49;;;;;;;0.93;0.45;;;17.90;45.00;;;;;;4945281;29;20239;-66
2021/05/15 11:38:24;;;;;;;1.17;0.52;;;18.00;44.50;;;;;;4945165;29;20035;-67
2021/05/15 11:40:49;;;;;;;2.58;0.50;;;18.10;46.00;;;;;;4944687;29;20059;-70
2021/05/15 11:43:38;;;;;;;1.30;0.65;;;18.10;44.10;;;;;;4944864;29;20023;-70
2021/05/15 11:46:05;;;;;;;2.03;0.50;;;18.40;44.70;;;;;;4934741;29;20108;-66
2021/05/15 11:48:32;;;;;;;2.35;0.50;;;18.40;44.70;;;;;;4944433;29;20039;-65
2021/05/15 11:51:05;;;;;;;0.80;0.57;;;18.60;45.50;;;;;;4946242;29;20032;-65
2021/05/15 11:53:35;;;;;;;0.70;0.40;;;18.50;41.00;;;;;;4945069;29;20346;-63
2021/05/15 11:56:00;;;;;;;1.33;0.47;;;18.70;43.40;;;;;;4944380;29;20036;-65
2021/05/15 11:58:26;;;;;;;1.70;0.50;;;18.80;44.60;;;;;;4944407;29;20106;-65
2021/05/15 12:00:52;;;;;;;1.33;0.70;;;18.90;44.10;;;;;;4944585;29;20047;-66
2021/05/15 12:03:24;;;;;;;1.98;0.60;;;18.90;45.40;;;;;;4944489;29;20044;-66
2021/05/15 12:05:51;;;;;;;1.42;0.68;;;18.70;42.90;;;;;;4946335;29;20035;-67
2021/05/15 12:08:17;;;;;;;2.20;0.60;;;18.70;43.20;;;;;;4944650;29;20102;-66
2021/05/15 12:10:42;;;;;;;0.70;0.40;;;18.40;42.50;;;;;;4944403;29;20039;-67
2021/05/15 12:13:08;;;;;;;1.52;0.60;;;18.40;42.00;;;;;;4944578;29;20315;-67
2021/05/15 12:15:36;;;;;;;1.52;0.60;;;18.10;42.20;;;;;;4944162;29;20039;-67
2021/05/15 12:18:02;;;;;;;1.13;0.40;;;18.20;42.20;;;;;;4946095;29;20079;-67
2021/05/15 12:20:28;;;;;;;1.45;0.60;;;18.30;42.30;;;;;;4927854;29;20047;-67
2021/05/15 12:23:22;;;;;;;3.50;0.60;;;18.50;42.70;;;;;;4944734;29;20047;-67
2021/05/15 12:25:58;;;;;;;0.57;0.50;;;18.60;43.30;;;;;;4944298;29;20046;-67
2021/05/15 12:28:26;;;;;;;1.77;0.50;;;18.50;44.50;;;;;;4944131;29;20044;-67
2021/05/15 12:30:52;;;;;;;0.65;0.40;;;18.50;41.60;;;;;;4944323;29;20036;-67
2021/05/15 12:33:19;;;;;;;2.08;0.70;;;18.60;41.20;;;;;;4945243;29;20039;-67
2021/05/15 12:36:03;;;;;;;1.33;0.50;;;18.80;42.60;;;;;;4932486;29;20311;-67
2021/05/15 12:38:29;;;;;;;1.23;0.40;;;18.70;39.60;;;;;;4948171;29;20284;-67
2021/05/15 12:41:11;;;;;;;2.97;0.60;;;18.50;41.00;;;;;;4947599;29;20054;-67
2021/05/15 12:43:38;;;;;;;0.98;0.40;;;18.40;40.40;;;;;;4947728;29;20040;-67
2021/05/15 12:46:08;;;;;;;0.73;0.40;;;18.20;39.30;;;;;;4947596;29;20115;-67
2021/05/15 12:48:39;;;;;;;0.70;0.40;;;18.10;39.70;;;;;;4947358;29;20032;-67
2021/05/15 12:51:11;;;;;;;0.65;0.38;;;18.30;39.60;;;;;;4949335;29;20028;-67